createdAt,value
2018-03-31T00:00:48.560Z,11.87
2018-03-31T00:03:15.817Z,11.86
2018-03-31T00:05:43.061Z,11.69
2018-03-31T00:08:10.313Z,11.56
2018-03-31T00:10:37.567Z,11.55
2018-03-31T00:13:04.817Z,11.73
2018-03-31T00:15:32.023Z,11.43
2018-03-31T00:17:59.316Z,11.39
2018-03-31T00:20:26.581Z,11.35
2018-03-31T00:22:53.724Z,11.31
2018-03-31T00:25:20.875Z,11.31
2018-03-31T00:27:48.128Z,11.33
2018-03-31T00:30:15.381Z,11.37
2018-03-31T00:32:42.636Z,11.41
2018-03-31T00:35:09.891Z,11.55
2018-03-31T00:37:37.139Z,11.47
2018-03-31T00:40:04.288Z,11.54
2018-03-31T00:42:31.437Z,11.52
2018-03-31T00:44:58.694Z,11.61
2018-03-31T00:47:25.942Z,11.60
2018-03-31T00:49:53.305Z,11.58
2018-03-31T00:52:20.446Z,11.57
2018-03-31T00:54:47.668Z,11.57
2018-03-31T00:57:14.850Z,11.55
2018-03-31T00:59:41.966Z,11.57
2018-03-31T01:02:09.149Z,11.55
2018-03-31T01:04:36.400Z,11.48
2018-03-31T01:07:03.653Z,11.45
2018-03-31T01:09:30.906Z,11.43
2018-03-31T01:11:58.158Z,11.41
2018-03-31T01:14:25.308Z,11.27
2018-03-31T01:16:52.566Z,11.22
2018-03-31T01:19:19.816Z,11.25
2018-03-31T01:21:47.065Z,11.23
2018-03-31T01:24:14.318Z,11.24
2018-03-31T01:26:41.576Z,11.24
2018-03-31T01:29:08.726Z,11.18
2018-03-31T01:31:35.973Z,11.10
2018-03-31T01:34:03.225Z,11.09
2018-03-31T01:36:30.477Z,11.08
2018-03-31T01:38:57.627Z,11.15
2018-03-31T01:41:24.880Z,11.14
2018-03-31T01:43:52.132Z,11.10
2018-03-31T01:46:19.283Z,10.95
2018-03-31T01:48:46.538Z,10.97
2018-03-31T01:51:13.684Z,11.00
2018-03-31T01:53:40.886Z,10.94
2018-03-31T01:56:08.196Z,10.77
2018-03-31T01:58:35.446Z,10.57
2018-03-31T02:01:02.590Z,10.38
2018-03-31T02:03:29.844Z,10.61
2018-03-31T02:05:57.096Z,10.35
2018-03-31T02:08:24.349Z,10.34
2018-03-31T02:10:51.602Z,10.30
2018-03-31T02:13:18.863Z,10.23
2018-03-31T02:15:46.106Z,10.22
2018-03-31T02:18:13.357Z,10.23
2018-03-31T02:20:40.609Z,10.25
2018-03-31T02:23:07.863Z,10.10
2018-03-31T02:25:35.217Z,10.02
2018-03-31T02:28:02.470Z,10.06
2018-03-31T02:30:29.737Z,10.01
2018-03-31T02:32:56.936Z,10.03
2018-03-31T02:35:24.133Z,9.94
2018-03-31T02:37:51.377Z,9.95
2018-03-31T02:40:18.629Z,9.28
2018-03-31T02:42:45.884Z,8.78
2018-03-31T02:45:13.036Z,8.84
2018-03-31T02:47:40.244Z,9.17
2018-03-31T02:50:07.434Z,9.27
2018-03-31T02:52:34.594Z,9.32
2018-03-31T02:55:01.735Z,9.41
2018-03-31T02:57:28.886Z,9.56
2018-03-31T02:59:56.081Z,9.67
2018-03-31T03:02:23.185Z,9.70
2018-03-31T03:04:50.436Z,9.79
2018-03-31T03:07:17.633Z,9.80
2018-03-31T03:09:44.839Z,9.82
2018-03-31T03:12:11.988Z,9.86
2018-03-31T03:14:39.241Z,9.83
2018-03-31T03:17:06.441Z,9.79
2018-03-31T03:19:33.643Z,9.76
2018-03-31T03:22:01.000Z,9.74
2018-03-31T03:24:28.256Z,9.77
2018-03-31T03:26:55.505Z,9.70
2018-03-31T03:29:22.757Z,9.81
2018-03-31T03:31:50.008Z,9.77
2018-03-31T03:34:17.267Z,9.83
2018-03-31T03:36:44.517Z,9.77
2018-03-31T03:39:11.772Z,9.78
2018-03-31T03:41:39.120Z,9.90
2018-03-31T03:44:06.376Z,9.68
2018-03-31T03:46:33.512Z,9.64
2018-03-31T03:49:00.789Z,9.64
2018-03-31T03:51:27.926Z,9.65
2018-03-31T03:53:55.074Z,9.63
2018-03-31T03:56:22.224Z,9.58
2018-03-31T03:58:49.395Z,9.56
2018-03-31T04:01:16.525Z,9.56
2018-03-31T04:03:43.776Z,9.69
2018-03-31T04:06:10.970Z,9.64
2018-03-31T04:08:38.282Z,9.74
2018-03-31T04:11:05.544Z,9.71
2018-03-31T04:13:32.683Z,9.78
2018-03-31T04:15:59.836Z,9.81
2018-03-31T04:18:26.988Z,9.87
2018-03-31T04:20:54.125Z,9.94
2018-03-31T04:23:21.284Z,9.83
2018-03-31T04:25:48.438Z,9.78
2018-03-31T04:28:15.585Z,9.83
2018-03-31T04:30:42.836Z,9.89
2018-03-31T04:33:09.989Z,9.80
2018-03-31T04:35:37.137Z,9.69
2018-03-31T04:38:04.286Z,9.58
2018-03-31T04:40:31.538Z,9.47
2018-03-31T04:42:58.792Z,9.54
2018-03-31T04:45:25.940Z,9.45
2018-03-31T04:47:53.082Z,9.47
2018-03-31T04:50:20.344Z,9.50
2018-03-31T04:52:47.499Z,9.41
2018-03-31T04:55:14.848Z,9.46
2018-03-31T04:57:41.998Z,9.45
2018-03-31T05:00:09.206Z,9.51
2018-03-31T05:02:36.402Z,9.53
2018-03-31T05:05:03.550Z,9.56
2018-03-31T05:07:30.803Z,9.57
2018-03-31T05:09:58.054Z,9.58
2018-03-31T05:12:25.204Z,9.54
2018-03-31T05:14:52.456Z,9.59
2018-03-31T05:17:19.717Z,9.66
2018-03-31T05:19:46.964Z,9.72
2018-03-31T05:22:14.213Z,9.71
2018-03-31T05:24:41.364Z,9.77
2018-03-31T05:27:08.514Z,9.72
2018-03-31T05:29:35.767Z,9.74
2018-03-31T05:32:02.918Z,9.80
2018-03-31T05:34:30.067Z,9.80
2018-03-31T05:36:57.423Z,9.73
2018-03-31T05:39:24.618Z,9.73
2018-03-31T05:41:51.823Z,9.75
2018-03-31T05:44:19.081Z,9.78
2018-03-31T05:46:46.268Z,9.87
2018-03-31T05:49:13.481Z,9.90
2018-03-31T05:51:40.616Z,9.96
2018-03-31T05:54:07.772Z,9.97
2018-03-31T05:56:35.030Z,9.88
2018-03-31T05:59:02.292Z,9.82
2018-03-31T06:01:29.498Z,9.91
2018-03-31T06:03:56.685Z,9.98
2018-03-31T06:06:23.996Z,9.92
2018-03-31T06:08:51.094Z,9.71
2018-03-31T06:11:24.382Z,9.59
2018-03-31T06:13:51.581Z,9.43
2018-03-31T06:16:18.889Z,9.71
2018-03-31T06:18:46.037Z,9.94
2018-03-31T06:21:13.191Z,10.02
2018-03-31T06:23:40.334Z,10.18
2018-03-31T06:26:07.588Z,10.49
2018-03-31T06:28:34.855Z,10.62
2018-03-31T06:31:02.052Z,10.81
2018-03-31T06:33:29.357Z,10.95
2018-03-31T06:35:56.503Z,10.87
2018-03-31T06:38:23.648Z,11.01
2018-03-31T06:40:50.803Z,11.10
2018-03-31T06:43:18.047Z,11.46
2018-03-31T06:45:45.239Z,11.82
2018-03-31T06:48:12.503Z,11.95
2018-03-31T06:50:39.702Z,11.72
2018-03-31T06:53:06.851Z,11.32
2018-03-31T06:55:34.053Z,10.69
2018-03-31T06:58:01.256Z,10.52
2018-03-31T07:00:28.410Z,11.23
2018-03-31T07:02:55.609Z,11.77
2018-03-31T07:05:22.869Z,12.62
2018-03-31T07:07:50.162Z,13.24
2018-03-31T07:10:17.418Z,13.63
2018-03-31T07:12:44.564Z,13.43
2018-03-31T07:15:11.816Z,14.03
2018-03-31T07:17:39.069Z,13.50
2018-03-31T07:20:06.321Z,13.49
2018-03-31T07:22:33.573Z,13.41
2018-03-31T07:25:00.826Z,12.90
2018-03-31T07:27:27.978Z,12.62
2018-03-31T07:29:55.120Z,12.58
2018-03-31T07:32:22.277Z,12.63
2018-03-31T07:34:49.529Z,12.78
2018-03-31T07:37:16.834Z,12.26
2018-03-31T07:39:44.033Z,12.26
2018-03-31T07:42:11.284Z,12.62
2018-03-31T07:44:38.537Z,12.65
2018-03-31T07:47:05.790Z,12.88
2018-03-31T07:49:33.042Z,13.02
2018-03-31T07:52:00.327Z,13.18
2018-03-31T07:54:27.502Z,13.17
2018-03-31T07:56:54.794Z,13.38
2018-03-31T07:59:21.948Z,14.10
2018-03-31T08:01:49.208Z,14.50
2018-03-31T08:04:16.352Z,14.88
2018-03-31T08:06:43.706Z,14.78
2018-03-31T08:09:10.959Z,15.55
2018-03-31T08:11:38.108Z,16.21
2018-03-31T08:14:05.361Z,16.75
2018-03-31T08:16:32.581Z,16.64
2018-03-31T08:18:59.753Z,16.89
2018-03-31T08:21:27.020Z,17.11
2018-03-31T08:23:54.167Z,17.59
2018-03-31T08:26:21.418Z,17.86
2018-03-31T08:28:48.797Z,17.68
2018-03-31T08:31:15.932Z,17.86
2018-03-31T08:33:43.072Z,18.15
2018-03-31T08:36:10.331Z,18.14
2018-03-31T08:38:37.474Z,18.33
2018-03-31T08:41:04.729Z,18.63
2018-03-31T08:43:31.980Z,18.76
2018-03-31T08:45:59.246Z,18.76
2018-03-31T08:48:26.442Z,18.26
2018-03-31T08:50:53.739Z,17.40
2018-03-31T08:53:20.884Z,17.47
2018-03-31T08:55:48.036Z,17.61
2018-03-31T08:58:15.236Z,17.83
2018-03-31T09:00:42.500Z,18.15
2018-03-31T09:03:09.691Z,18.25
2018-03-31T09:05:36.841Z,18.26
2018-03-31T09:08:04.059Z,18.61
2018-03-31T09:10:31.141Z,18.60
2018-03-31T09:12:58.398Z,18.46
2018-03-31T09:15:25.647Z,18.40
2018-03-31T09:17:52.797Z,18.69
2018-03-31T09:20:20.049Z,18.82
2018-03-31T09:22:47.300Z,18.88
2018-03-31T09:25:14.553Z,18.87
2018-03-31T09:27:41.806Z,18.84
2018-03-31T09:30:08.956Z,19.08
2018-03-31T09:32:36.167Z,19.07
2018-03-31T09:35:03.361Z,19.41
2018-03-31T09:37:30.561Z,19.53
2018-03-31T09:39:57.833Z,20.02
2018-03-31T09:42:25.017Z,20.22
2018-03-31T09:44:52.265Z,20.66
2018-03-31T09:47:19.403Z,20.69
2018-03-31T09:49:46.667Z,20.42
2018-03-31T09:52:13.922Z,19.30
2018-03-31T09:54:41.172Z,19.75
2018-03-31T09:57:08.425Z,19.62
2018-03-31T09:59:35.779Z,19.96
2018-03-31T10:02:03.033Z,20.50
2018-03-31T10:04:30.182Z,20.95
2018-03-31T10:06:57.434Z,21.14
2018-03-31T10:09:24.659Z,21.32
2018-03-31T10:11:51.944Z,21.30
2018-03-31T10:14:19.293Z,21.72
2018-03-31T10:16:46.444Z,22.06
2018-03-31T10:19:13.701Z,22.21
2018-03-31T10:21:40.915Z,22.23
2018-03-31T10:24:08.316Z,22.45
2018-03-31T10:26:35.556Z,21.75
2018-03-31T10:29:02.710Z,21.94
2018-03-31T10:31:29.856Z,22.39
2018-03-31T10:33:57.108Z,22.33
2018-03-31T10:36:24.365Z,22.33
2018-03-31T10:38:51.653Z,22.17
2018-03-31T10:41:18.871Z,22.07
2018-03-31T10:43:46.064Z,22.16
2018-03-31T10:46:13.156Z,22.36
2018-03-31T10:48:40.417Z,22.46
2018-03-31T10:51:07.568Z,22.75
2018-03-31T10:53:34.819Z,23.19
2018-03-31T10:56:02.073Z,23.31
2018-03-31T10:58:29.262Z,22.70
2018-03-31T11:00:56.528Z,22.67
2018-03-31T11:03:23.828Z,22.70
2018-03-31T11:05:51.187Z,21.83
2018-03-31T11:08:18.383Z,21.83
2018-03-31T11:10:45.588Z,21.80
2018-03-31T11:13:12.816Z,21.62
2018-03-31T11:15:40.090Z,21.47
2018-03-31T11:18:07.240Z,21.43
2018-03-31T11:20:34.493Z,21.80
2018-03-31T11:23:01.750Z,22.19
2018-03-31T11:25:28.950Z,22.14
2018-03-31T11:27:56.148Z,22.14
2018-03-31T11:30:23.401Z,22.10
2018-03-31T11:32:50.653Z,22.27
2018-03-31T11:35:17.904Z,21.85
2018-03-31T11:37:45.162Z,21.35
2018-03-31T11:40:12.409Z,21.96
2018-03-31T11:42:39.560Z,22.11
2018-03-31T11:45:06.714Z,22.30
2018-03-31T11:47:33.970Z,22.44
2018-03-31T11:50:01.112Z,22.55
2018-03-31T11:52:28.377Z,22.79
2018-03-31T11:54:55.616Z,22.31
2018-03-31T11:57:22.766Z,22.38
2018-03-31T11:59:49.905Z,22.45
2018-03-31T12:02:17.435Z,22.32
2018-03-31T12:04:44.730Z,22.53
2018-03-31T12:07:11.982Z,22.70
2018-03-31T12:09:39.119Z,22.51
2018-03-31T12:12:06.388Z,22.84
2018-03-31T12:14:33.528Z,23.19
2018-03-31T12:17:00.786Z,22.69
2018-03-31T12:19:28.038Z,22.73
2018-03-31T12:21:55.193Z,22.70
2018-03-31T12:24:22.440Z,23.32
2018-03-31T12:26:49.692Z,23.59
2018-03-31T12:29:16.950Z,23.71
2018-03-31T12:31:44.198Z,23.62
2018-03-31T12:34:11.450Z,23.77
2018-03-31T12:36:38.824Z,23.69
2018-03-31T12:39:06.009Z,23.36
2018-03-31T12:41:33.206Z,23.12
2018-03-31T12:44:00.560Z,23.20
2018-03-31T12:46:27.712Z,23.42
2018-03-31T12:48:54.964Z,23.30
2018-03-31T12:51:22.216Z,23.16
2018-03-31T12:53:49.572Z,23.57
2018-03-31T12:56:16.722Z,23.08
2018-03-31T12:58:43.872Z,23.05
2018-03-31T13:01:11.124Z,23.33
2018-03-31T13:03:38.280Z,23.62
2018-03-31T13:06:05.425Z,23.77
2018-03-31T13:08:32.604Z,23.48
2018-03-31T13:10:59.724Z,23.07
2018-03-31T13:13:26.976Z,22.44
2018-03-31T13:15:54.230Z,22.02
2018-03-31T13:18:21.486Z,21.46
2018-03-31T13:20:48.733Z,21.14
2018-03-31T13:23:15.941Z,21.03
2018-03-31T13:25:43.144Z,21.05
2018-03-31T13:28:10.349Z,21.19
2018-03-31T13:30:37.539Z,21.20
2018-03-31T13:33:04.734Z,21.26
2018-03-31T13:35:32.248Z,21.10
2018-03-31T13:37:59.608Z,20.83
2018-03-31T13:40:26.909Z,20.60
2018-03-31T13:42:54.212Z,20.36
2018-03-31T13:45:21.399Z,20.49
2018-03-31T13:47:48.563Z,20.37
2018-03-31T13:50:15.637Z,20.73
2018-03-31T13:52:42.812Z,21.19
2018-03-31T13:55:09.959Z,21.05
2018-03-31T13:57:37.866Z,20.87
2018-03-31T14:00:05.181Z,20.29
2018-03-31T14:02:32.484Z,20.44
2018-03-31T14:04:59.993Z,20.68
2018-03-31T14:07:27.252Z,21.18
2018-03-31T14:09:54.409Z,21.43
2018-03-31T14:12:21.660Z,21.40
2018-03-31T14:14:48.847Z,21.72
2018-03-31T14:17:16.113Z,21.72
2018-03-31T14:19:43.200Z,21.16
2018-03-31T14:22:10.398Z,21.08
2018-03-31T14:24:37.504Z,20.94
2018-03-31T14:27:04.652Z,21.00
2018-03-31T14:29:31.910Z,21.57
2018-03-31T14:31:59.155Z,21.52
2018-03-31T14:34:26.513Z,21.80
2018-03-31T14:36:53.653Z,21.87
2018-03-31T14:39:20.913Z,21.70
2018-03-31T14:41:48.166Z,21.44
2018-03-31T14:44:15.423Z,21.16
2018-03-31T14:46:42.573Z,21.12
2018-03-31T14:49:09.822Z,20.90
2018-03-31T14:51:37.073Z,21.20
2018-03-31T14:54:04.326Z,21.21
2018-03-31T14:56:31.580Z,20.87
2018-03-31T14:58:58.756Z,20.64
2018-03-31T15:01:26.003Z,20.76
2018-03-31T15:03:53.236Z,20.70
2018-03-31T15:06:20.384Z,20.72
2018-03-31T15:08:47.534Z,20.55
2018-03-31T15:11:14.680Z,20.45
2018-03-31T15:13:41.935Z,20.47
2018-03-31T15:16:09.086Z,20.68
2018-03-31T15:18:36.228Z,20.64
2018-03-31T15:21:03.487Z,20.53
2018-03-31T15:23:30.640Z,20.09
2018-03-31T15:25:57.786Z,19.92
2018-03-31T15:28:24.945Z,19.97
2018-03-31T15:30:52.091Z,19.70
2018-03-31T15:33:19.338Z,20.06
2018-03-31T15:35:46.898Z,20.30
2018-03-31T15:38:14.049Z,20.38
2018-03-31T15:40:41.232Z,20.50
2018-03-31T15:43:08.453Z,20.48
2018-03-31T15:45:35.702Z,20.19
2018-03-31T15:48:02.849Z,20.43
2018-03-31T15:50:31.031Z,20.43
2018-03-31T15:52:58.285Z,20.02
2018-03-31T15:55:25.533Z,19.88
2018-03-31T15:57:52.786Z,20.10
2018-03-31T16:00:19.923Z,20.09
2018-03-31T16:02:47.085Z,19.78
2018-03-31T16:05:14.337Z,19.86
2018-03-31T16:07:41.497Z,20.09
2018-03-31T16:10:08.753Z,19.95
2018-03-31T16:12:35.888Z,19.86
2018-03-31T16:15:03.035Z,19.97
2018-03-31T16:17:30.295Z,19.85
2018-03-31T16:19:57.489Z,20.24
2018-03-31T16:22:24.901Z,19.79
2018-03-31T16:24:52.354Z,19.30
2018-03-31T16:27:19.614Z,19.39
2018-03-31T16:32:29.474Z,18.69
2018-03-31T16:34:56.626Z,18.46
2018-03-31T16:37:23.877Z,18.31
2018-03-31T16:39:51.131Z,18.31
2018-03-31T16:42:18.383Z,18.29
2018-03-31T16:44:45.531Z,18.21
2018-03-31T16:47:12.785Z,18.21
2018-03-31T16:49:40.046Z,18.13
2018-03-31T16:52:07.180Z,18.27
2018-03-31T16:54:34.439Z,18.21
2018-03-31T16:57:01.622Z,18.12
2018-03-31T16:59:28.841Z,17.98
2018-03-31T17:01:55.976Z,17.88
2018-03-31T17:04:23.244Z,17.80
2018-03-31T17:06:50.496Z,17.83
2018-03-31T17:09:17.748Z,17.86
2018-03-31T17:11:45.002Z,17.92
2018-03-31T17:14:12.255Z,17.82
2018-03-31T17:16:39.393Z,17.87
2018-03-31T17:19:06.559Z,17.94
2018-03-31T17:21:33.805Z,17.90
2018-03-31T17:24:01.124Z,18.00
2018-03-31T17:26:28.310Z,18.13
2018-03-31T17:28:55.567Z,18.12
2018-03-31T17:31:22.720Z,18.16
2018-03-31T17:33:49.915Z,18.14
2018-03-31T17:36:17.115Z,18.14
2018-03-31T17:38:44.475Z,18.06
2018-03-31T17:41:11.829Z,17.97
2018-03-31T17:43:39.080Z,17.93
2018-03-31T17:46:06.331Z,17.98
2018-03-31T17:48:33.539Z,17.97
2018-03-31T17:51:00.784Z,17.96
2018-03-31T17:53:27.948Z,17.87
2018-03-31T17:55:55.239Z,18.02
2018-03-31T17:58:22.431Z,17.84
2018-03-31T18:00:49.750Z,17.68
2018-03-31T18:03:16.883Z,17.64
2018-03-31T18:05:44.145Z,17.37
2018-03-31T18:08:11.387Z,17.21
2018-03-31T18:10:38.648Z,17.09
2018-03-31T18:13:05.798Z,16.89
2018-03-31T18:15:32.871Z,16.82
2018-03-31T18:18:00.200Z,16.60
2018-03-31T18:20:27.359Z,16.48
2018-03-31T18:22:54.548Z,16.48
2018-03-31T18:25:21.855Z,16.37
2018-03-31T18:27:49.012Z,16.40
2018-03-31T18:30:16.323Z,16.28
2018-03-31T18:32:43.509Z,16.10
2018-03-31T18:35:10.660Z,16.09
2018-03-31T18:37:37.811Z,16.19
2018-03-31T18:40:04.967Z,16.15
2018-03-31T18:42:32.108Z,16.05
2018-03-31T18:44:59.417Z,16.06
2018-03-31T18:47:26.821Z,15.94
2018-03-31T18:49:54.075Z,16.05
2018-03-31T18:52:21.331Z,16.02
2018-03-31T18:54:48.640Z,16.07
2018-03-31T18:57:15.933Z,15.99
2018-03-31T18:59:43.161Z,15.94
2018-03-31T19:02:10.547Z,15.88
2018-03-31T19:04:37.714Z,15.79
2018-03-31T19:07:04.898Z,15.72
2018-03-31T19:09:32.117Z,15.67
2018-03-31T19:11:59.347Z,15.56
2018-03-31T19:14:26.599Z,15.45
2018-03-31T19:16:59.488Z,15.38
2018-03-31T19:19:26.623Z,15.29
2018-03-31T19:21:53.885Z,15.13
2018-03-31T19:24:21.137Z,15.13
2018-03-31T19:26:48.391Z,15.17
2018-03-31T19:29:15.700Z,15.24
2018-03-31T19:31:42.893Z,15.21
2018-03-31T19:34:10.075Z,15.27
2018-03-31T19:36:37.398Z,15.20
2018-03-31T19:39:04.549Z,15.15
2018-03-31T19:41:31.856Z,15.09
2018-03-31T19:43:58.942Z,15.03
2018-03-31T19:46:26.204Z,15.02
2018-03-31T19:48:53.353Z,14.91
2018-03-31T19:51:20.496Z,14.78
2018-03-31T19:53:47.910Z,14.69
2018-03-31T19:56:15.008Z,14.70
2018-03-31T19:58:42.152Z,14.71
2018-03-31T20:01:09.305Z,14.60
2018-03-31T20:03:36.561Z,14.64
2018-03-31T20:06:03.816Z,14.55
2018-03-31T20:08:31.067Z,14.46
2018-03-31T20:10:58.224Z,14.47
2018-03-31T20:13:25.468Z,14.49
2018-03-31T20:15:52.720Z,14.32
2018-03-31T20:18:19.973Z,14.18
2018-03-31T20:20:47.401Z,14.22
2018-03-31T20:23:14.686Z,14.04
2018-03-31T20:25:41.939Z,13.80
2018-03-31T20:28:09.186Z,13.79
2018-03-31T20:30:36.389Z,13.85
2018-03-31T20:33:03.488Z,13.89
2018-03-31T20:35:30.701Z,13.93
2018-03-31T20:37:57.886Z,13.96
2018-03-31T20:40:25.149Z,14.13
2018-03-31T20:42:52.293Z,14.15
2018-03-31T20:45:19.750Z,14.19
2018-03-31T20:47:47.003Z,14.26
2018-03-31T20:50:14.254Z,14.30
2018-03-31T20:52:41.508Z,14.32
2018-03-31T20:55:08.647Z,14.31
2018-03-31T20:57:35.902Z,14.33
2018-03-31T21:00:03.165Z,14.18
2018-03-31T21:02:30.313Z,14.11
2018-03-31T21:04:57.564Z,14.09
2018-03-31T21:07:24.764Z,14.07
2018-03-31T21:09:52.076Z,14.07
2018-03-31T21:12:19.323Z,14.17
2018-03-31T21:14:46.465Z,14.05
2018-03-31T21:17:13.728Z,13.97
2018-03-31T21:19:40.873Z,13.92
2018-03-31T21:22:08.127Z,13.97
2018-03-31T21:24:35.274Z,14.04
2018-03-31T21:27:02.529Z,14.06
2018-03-31T21:29:29.678Z,14.01
2018-03-31T21:31:56.934Z,14.05
2018-03-31T21:34:24.187Z,14.10
2018-03-31T21:36:51.329Z,14.05
2018-03-31T21:39:18.592Z,14.08
2018-03-31T21:41:45.839Z,14.06
2018-03-31T21:44:13.197Z,14.07
2018-03-31T21:46:40.447Z,13.92
2018-03-31T21:49:07.650Z,13.92
2018-03-31T21:51:34.939Z,13.90
2018-03-31T21:54:02.155Z,13.84
2018-03-31T21:56:29.355Z,13.89
2018-03-31T21:58:56.608Z,13.89
2018-03-31T22:01:23.882Z,13.87
2018-03-31T22:03:51.226Z,13.79
2018-03-31T22:06:18.470Z,13.68
2018-03-31T22:08:45.726Z,13.72
2018-03-31T22:11:12.969Z,13.49
2018-03-31T22:13:45.714Z,13.34
2018-03-31T22:16:12.788Z,13.04
2018-03-31T22:18:40.053Z,12.87
2018-03-31T22:21:07.407Z,12.75
2018-03-31T22:23:34.660Z,12.73
2018-03-31T22:26:01.916Z,12.77
2018-03-31T22:28:29.164Z,12.64
2018-03-31T22:30:56.316Z,12.62
2018-03-31T22:33:23.573Z,12.57
2018-03-31T22:35:50.817Z,12.46
2018-03-31T22:38:17.997Z,12.32
2018-03-31T22:40:45.225Z,12.38
2018-03-31T22:43:12.434Z,12.36
2018-03-31T22:45:39.624Z,12.43
2018-03-31T22:48:06.878Z,12.59
2018-03-31T22:50:33.950Z,12.71
2018-03-31T22:53:01.176Z,12.88
2018-03-31T22:55:28.389Z,12.95
2018-03-31T22:57:55.682Z,12.91
2018-03-31T23:00:22.831Z,12.83
2018-03-31T23:02:50.214Z,12.87
2018-03-31T23:05:17.439Z,12.86
2018-03-31T23:07:44.701Z,12.73
2018-03-31T23:10:11.945Z,12.79
2018-03-31T23:12:39.086Z,12.76
2018-03-31T23:15:06.244Z,12.78
2018-03-31T23:17:33.496Z,12.78
2018-03-31T23:20:00.663Z,12.75
2018-03-31T23:22:27.898Z,12.72
2018-03-31T23:24:55.155Z,12.79
2018-03-31T23:27:22.297Z,12.97
2018-03-31T23:29:49.552Z,13.04
2018-03-31T23:32:16.866Z,13.06
2018-03-31T23:34:44.106Z,13.11
2018-03-31T23:37:11.413Z,13.13
2018-03-31T23:39:38.664Z,13.24
2018-03-31T23:42:05.917Z,13.32
2018-03-31T23:44:33.174Z,13.42
2018-03-31T23:47:00.319Z,13.43
2018-03-31T23:49:27.574Z,13.27
2018-03-31T23:51:54.824Z,13.32
2018-03-31T23:54:22.077Z,13.26
2018-03-31T23:56:49.335Z,13.35
2018-03-31T23:59:16.529Z,13.23
